Time;durP1;ratioP1;P1;durP2;ratioP2;P2;SDS_P1;SDS_P2;PMS_P1;PMS_P2;Temp;Humidity;BMP_temperature;BMP_pressure;BME280_temperature;BME280_humidity;BME280_pressure;Samples;Min_cycle;Max_cycle;Signal;HPM_P1;HPM_P2
2021/08/07 04:31:16;;;;;;;3.63;2.83;;;14.20;99.90;;;;;;5721615;23;20508;-75
2021/08/07 04:33:42;;;;;;;12.63;3.40;;;14.20;99.90;;;;;;4929927;29;20962;-79
2021/08/07 04:36:07;;;;;;;5.40;3.20;;;14.20;99.90;;;;;;4922132;29;20186;-80
2021/08/07 04:38:33;;;;;;;6.47;3.50;;;14.30;99.90;;;;;;4913324;29;20359;-79
2021/08/07 04:40:58;;;;;;;4.47;3.00;;;14.20;99.90;;;;;;4933386;29;20217;-80
2021/08/07 04:43:24;;;;;;;2.90;2.70;;;14.30;99.90;;;;;;4935672;29;20272;-80
2021/08/07 04:45:49;;;;;;;3.13;2.83;;;14.30;99.90;;;;;;4934898;29;20674;-76
2021/08/07 04:48:15;;;;;;;4.63;2.97;;;14.40;99.90;;;;;;4935007;29;20257;-76
2021/08/07 04:50:41;;;;;;;4.13;3.20;;;14.50;99.90;;;;;;4935839;29;20225;-77
2021/08/07 04:53:07;;;;;;;2.70;2.50;;;14.50;99.90;;;;;;4935203;29;20179;-76
2021/08/07 04:55:34;;;;;;;3.50;3.20;;;14.60;99.90;;;;;;4933708;29;20185;-75
2021/08/07 04:57:59;;;;;;;5.10;3.80;;;14.70;99.90;;;;;;4934398;29;20212;-76
2021/08/07 05:00:25;;;;;;;4.23;3.23;;;14.80;99.90;;;;;;4934230;29;20765;-76
2021/08/07 05:02:50;;;;;;;5.93;3.20;;;14.80;99.90;;;;;;4933199;29;20651;-76
2021/08/07 05:05:17;;;;;;;8.00;4.30;;;14.90;99.90;;;;;;4932553;29;20174;-76
2021/08/07 05:07:44;;;;;;;3.60;2.90;;;15.00;99.90;;;;;;4933259;29;20655;-75
2021/08/07 05:10:12;;;;;;;7.37;2.80;;;15.10;99.90;;;;;;4933771;29;20504;-75
2021/08/07 05:12:38;;;;;;;7.07;3.10;;;15.10;99.90;;;;;;4933260;29;20441;-76
2021/08/07 05:15:05;;;;;;;4.40;2.60;;;15.20;99.90;;;;;;4932888;29;20433;-76
2021/08/07 05:17:30;;;;;;;3.43;2.80;;;15.20;99.90;;;;;;4933196;29;20479;-75
2021/08/07 05:19:56;;;;;;;4.97;2.83;;;15.30;99.90;;;;;;4933204;29;20427;-76
2021/08/07 05:22:23;;;;;;;5.70;2.23;;;15.50;99.90;;;;;;4933286;29;20197;-76
2021/08/07 05:24:49;;;;;;;10.73;2.20;;;15.50;99.90;;;;;;4932765;29;20252;-74
2021/08/07 05:27:15;;;;;;;3.73;2.07;;;15.50;99.90;;;;;;4933145;29;20943;-76
2021/08/07 05:29:41;;;;;;;3.57;1.97;;;15.60;99.90;;;;;;4931703;29;20516;-76
2021/08/07 05:32:07;;;;;;;2.83;2.13;;;15.60;99.90;;;;;;4933139;29;20224;-75
2021/08/07 05:34:33;;;;;;;4.43;2.03;;;15.60;99.90;;;;;;4932770;29;20424;-76
2021/08/07 05:36:58;;;;;;;6.60;1.63;;;15.80;99.90;;;;;;4932303;29;20201;-76
2021/08/07 05:39:24;;;;;;;9.30;1.70;;;15.90;99.90;;;;;;4933422;29;20184;-76
2021/08/07 05:41:49;;;;;;;1.60;1.50;;;16.00;99.90;;;;;;4933149;29;20701;-76
2021/08/07 05:44:15;;;;;;;2.07;1.47;;;16.30;99.90;;;;;;4932157;29;20178;-76
2021/08/07 05:46:40;;;;;;;4.10;2.17;;;16.60;99.90;;;;;;4932156;29;20547;-76
2021/08/07 05:49:06;;;;;;;6.37;2.10;;;17.10;99.90;;;;;;4933325;29;20237;-76
2021/08/07 05:51:34;;;;;;;5.73;2.10;;;17.70;99.90;;;;;;4932919;29;20193;-75
2021/08/07 05:54:01;;;;;;;3.63;1.20;;;18.40;99.90;;;;;;4932509;29;20621;-76
2021/08/07 05:56:26;;;;;;;1.93;1.50;;;18.90;99.90;;;;;;4932179;29;20938;-76
2021/08/07 05:58:52;;;;;;;3.60;1.70;;;19.10;99.90;;;;;;4933651;29;20464;-76
2021/08/07 06:01:17;;;;;;;7.77;1.20;;;18.90;99.90;;;;;;4932604;29;20229;-76
2021/08/07 06:03:43;;;;;;;4.77;1.27;;;18.80;99.90;;;;;;4933397;29;20179;-76
2021/08/07 06:06:08;;;;;;;2.90;1.23;;;18.70;99.90;;;;;;4932112;29;20204;-76
2021/08/07 06:08:34;;;;;;;1.77;1.30;;;18.60;99.90;;;;;;4933340;29;20713;-77
2021/08/07 06:10:59;;;;;;;2.13;1.20;;;18.50;99.90;;;;;;4932993;29;20276;-75
2021/08/07 06:13:25;;;;;;;1.97;1.20;;;18.50;99.90;;;;;;4932696;29;20192;-74
2021/08/07 06:15:51;;;;;;;4.43;1.37;;;18.50;99.90;;;;;;4932334;29;20264;-76
2021/08/07 06:18:17;;;;;;;8.03;1.77;;;18.50;99.90;;;;;;4935174;29;20464;-76
2021/08/07 06:20:43;;;;;;;2.50;1.40;;;18.70;99.90;;;;;;4936385;29;20181;-75
2021/08/07 06:23:09;;;;;;;2.37;1.60;;;19.00;99.90;;;;;;4936803;29;20203;-74
2021/08/07 06:25:35;;;;;;;2.50;1.67;;;19.40;99.90;;;;;;4935857;29;20429;-75
2021/08/07 06:28:02;;;;;;;2.07;1.43;;;19.90;99.90;;;;;;4936738;29;20281;-76
2021/08/07 06:30:28;;;;;;;5.83;2.33;;;20.30;99.90;;;;;;4936951;29;20953;-75
2021/08/07 06:32:53;;;;;;;2.70;1.03;;;20.60;99.90;;;;;;4936029;29;20555;-75
2021/08/07 06:35:19;;;;;;;1.10;1.00;;;21.10;99.90;;;;;;4935710;29;20185;-76
2021/08/07 06:37:45;;;;;;;4.43;1.23;;;21.70;99.90;;;;;;4936480;29;20205;-76
2021/08/07 06:40:12;;;;;;;1.37;1.00;;;21.80;99.90;;;;;;4936417;29;20417;-76
2021/08/07 06:42:38;;;;;;;3.33;1.47;;;22.00;99.90;;;;;;4936387;29;20616;-74
2021/08/07 06:45:05;;;;;;;2.30;1.30;;;22.00;99.90;;;;;;4935507;29;20448;-76
2021/08/07 06:47:30;;;;;;;3.87;1.80;;;22.10;99.90;;;;;;4935894;29;20449;-76
2021/08/07 06:49:56;;;;;;;1.80;1.27;;;22.00;99.90;;;;;;4936233;29;20441;-76
2021/08/07 06:52:21;;;;;;;3.33;1.40;;;22.20;99.90;;;;;;4936047;29;20280;-76
2021/08/07 06:54:47;;;;;;;1.57;0.90;;;22.30;99.90;;;;;;4935947;29;20245;-76
2021/08/07 06:57:17;;;;;;;2.40;1.33;;;22.40;99.90;;;;;;4935186;29;20205;-75
2021/08/07 06:59:43;;;;;;;1.30;0.90;;;22.50;99.90;;;;;;4935658;29;20173;-76
2021/08/07 07:02:08;;;;;;;1.20;1.10;;;22.70;99.90;;;;;;4935664;29;20477;-73
2021/08/07 07:04:34;;;;;;;2.30;1.00;;;22.90;99.90;;;;;;4936406;29;20182;-76
2021/08/07 07:07:01;;;;;;;1.73;1.10;;;23.10;99.90;;;;;;4934697;29;20177;-77
2021/08/07 07:09:26;;;;;;;2.50;0.80;;;23.20;99.90;;;;;;4935867;29;20521;-76
2021/08/07 07:11:52;;;;;;;2.47;1.90;;;23.40;99.90;;;;;;4935123;29;20860;-76
2021/08/07 07:14:18;;;;;;;1.27;1.00;;;23.60;99.90;;;;;;4937073;29;20268;-76
2021/08/07 07:16:43;;;;;;;3.10;1.10;;;23.90;99.90;;;;;;4936282;29;20659;-76
2021/08/07 07:19:09;;;;;;;1.00;0.90;;;24.20;99.90;;;;;;4936847;29;20182;-75
2021/08/07 07:21:34;;;;;;;2.40;1.10;;;24.30;99.90;;;;;;4935859;29;20212;-76
2021/08/07 07:24:00;;;;;;;1.40;1.00;;;24.30;99.90;;;;;;4936001;29;20201;-76
2021/08/07 07:26:27;;;;;;;3.70;1.27;;;24.00;99.90;;;;;;4934226;29;20214;-77
2021/08/07 07:28:56;;;;;;;1.83;0.90;;;23.70;99.90;;;;;;4934422;29;20178;-76
2021/08/07 07:31:22;;;;;;;3.23;1.20;;;23.30;99.90;;;;;;4939767;28;21101;-76
2021/08/07 07:33:48;;;;;;;1.37;0.90;;;22.80;99.90;;;;;;4948959;29;20491;-76
2021/08/07 07:36:14;;;;;;;3.47;1.10;;;22.60;99.90;;;;;;4945375;29;20425;-75
2021/08/07 07:38:40;;;;;;;1.30;1.07;;;22.40;99.90;;;;;;4931015;29;20233;-75
2021/08/07 07:41:06;;;;;;;2.00;1.23;;;22.30;99.90;;;;;;4934302;29;20472;-76
2021/08/07 07:43:32;;;;;;;4.20;1.00;;;22.50;99.90;;;;;;4934789;29;20185;-75
2021/08/07 07:45:58;;;;;;;2.80;0.90;;;22.40;99.90;;;;;;4934652;29;20473;-76
2021/08/07 07:48:23;;;;;;;1.03;0.80;;;22.30;99.90;;;;;;4952750;29;20185;-75
2021/08/07 07:50:49;;;;;;;2.10;1.13;;;22.40;99.90;;;;;;4953905;28;20949;-76
2021/08/07 07:53:15;;;;;;;1.37;1.00;;;22.40;99.90;;;;;;4953984;29;20215;-76
2021/08/07 07:55:41;;;;;;;1.67;1.03;;;22.40;99.90;;;;;;4951030;29;20192;-75
2021/08/07 07:58:07;;;;;;;0.97;0.90;;;22.50;99.90;;;;;;4934158;29;20201;-73
2021/08/07 08:00:32;;;;;;;3.73;1.67;;;22.40;99.90;;;;;;4934540;29;20444;-75
2021/08/07 08:02:58;;;;;;;1.80;0.93;;;22.60;99.90;;;;;;4934632;29;20699;-76
2021/08/07 08:05:24;;;;;;;1.50;1.07;;;22.80;99.90;;;;;;4934149;29;20185;-75
2021/08/07 08:07:50;;;;;;;4.70;1.17;;;23.20;99.90;;;;;;4934670;29;20180;-77
2021/08/07 08:10:16;;;;;;;2.53;1.13;;;23.60;99.90;;;;;;4934382;29;20440;-76
2021/08/07 08:12:44;;;;;;;2.53;0.97;;;23.80;99.90;;;;;;4933482;29;20980;-74
2021/08/07 08:15:10;;;;;;;3.60;1.13;;;23.90;99.90;;;;;;4934375;29;20177;-75
2021/08/07 08:17:36;;;;;;;6.17;1.30;;;23.80;99.90;;;;;;4933581;29;20484;-75
2021/08/07 08:20:04;;;;;;;2.27;0.83;;;23.70;99.90;;;;;;4933877;29;20429;-75
2021/08/07 08:22:30;;;;;;;5.70;1.20;;;23.50;99.90;;;;;;4934156;29;20444;-76
2021/08/07 08:24:55;;;;;;;1.00;0.90;;;23.40;99.90;;;;;;4933373;29;20433;-75
2021/08/07 08:27:21;;;;;;;1.83;1.10;;;23.30;99.90;;;;;;4934199;29;20189;-76
2021/08/07 08:29:46;;;;;;;3.03;0.80;;;23.40;99.90;;;;;;4934405;29;20169;-75
2021/08/07 08:32:12;;;;;;;1.47;1.07;;;23.70;99.90;;;;;;4925836;29;20709;-77
2021/08/07 08:34:38;;;;;;;1.50;0.90;;;23.70;99.90;;;;;;4923044;29;20277;-76
2021/08/07 08:37:04;;;;;;;5.30;1.40;;;23.70;99.90;;;;;;4932885;29;20236;-76
2021/08/07 08:39:29;;;;;;;2.23;0.87;;;23.60;99.90;;;;;;4934426;29;20193;-77
2021/08/07 08:41:55;;;;;;;1.60;1.10;;;23.50;99.90;;;;;;4927490;29;20751;-77
2021/08/07 08:44:21;;;;;;;1.47;0.90;;;23.40;99.90;;;;;;4933605;29;20677;-77
2021/08/07 08:46:47;;;;;;;1.43;0.90;;;23.30;99.90;;;;;;4933558;29;20173;-77
2021/08/07 08:49:18;;;;;;;4.13;0.90;;;23.20;99.90;;;;;;4934077;29;20177;-77
2021/08/07 08:51:45;;;;;;;3.17;1.37;;;23.20;99.90;;;;;;4933457;29;20429;-75
2021/08/07 08:54:11;;;;;;;1.97;1.20;;;23.10;99.90;;;;;;4933902;29;20425;-76
2021/08/07 08:56:38;;;;;;;3.70;1.23;;;22.90;99.90;;;;;;4932923;29;20472;-74
2021/08/07 08:59:04;;;;;;;3.60;1.40;;;22.80;99.90;;;;;;4933889;29;20504;-75
2021/08/07 09:01:31;;;;;;;3.70;1.53;;;22.80;99.90;;;;;;4933461;29;20430;-77
2021/08/07 09:03:57;;;;;;;3.97;1.30;;;22.80;99.90;;;;;;4933986;29;20422;-77
2021/08/07 09:06:22;;;;;;;1.50;0.93;;;22.70;99.90;;;;;;4932611;29;20528;-75
2021/08/07 09:09:08;;;;;;;2.47;1.50;;;22.60;99.90;;;;;;4933479;29;20185;-77
2021/08/07 09:11:36;;;;;;;1.93;1.00;;;22.60;99.90;;;;;;4933043;29;20201;-77
2021/08/07 09:14:13;;;;;;;2.80;1.80;;;22.50;99.90;;;;;;4933665;29;20794;-77
2021/08/07 09:17:03;;;;;;;2.10;1.50;;;22.60;99.90;;;;;;4930005;29;20440;-77
2021/08/07 09:19:48;;;;;;;5.93;5.43;;;22.60;99.90;;;;;;4914393;29;20438;-77
2021/08/07 09:22:27;;;;;;;8.43;2.10;;;22.60;99.90;;;;;;4925776;29;20990;-76
2021/08/07 09:25:13;;;;;;;2.03;1.33;;;22.60;99.90;;;;;;4933119;29;20478;-77
2021/08/07 09:27:41;;;;;;;1.63;1.27;;;22.70;99.90;;;;;;4933187;29;20437;-76
2021/08/07 09:30:13;;;;;;;3.07;1.90;;;22.80;99.90;;;;;;4933324;29;20425;-76
2021/08/07 09:32:58;;;;;;;1.93;1.30;;;22.90;99.90;;;;;;4932494;29;20461;-76
2021/08/07 09:35:31;;;;;;;1.73;1.10;;;23.00;99.90;;;;;;4931962;29;21006;-75
2021/08/07 09:38:19;;;;;;;2.30;1.47;;;23.10;99.90;;;;;;4932876;29;20479;-77
2021/08/07 09:40:54;;;;;;;2.43;1.37;;;23.20;99.90;;;;;;4932872;29;20421;-76
2021/08/07 09:43:28;;;;;;;2.20;0.90;;;23.20;99.90;;;;;;4931920;29;20942;-76
2021/08/07 09:46:08;;;;;;;4.40;1.30;;;23.30;99.90;;;;;;4932483;29;20433;-77
2021/08/07 09:48:34;;;;;;;2.97;1.13;;;23.20;99.90;;;;;;4933212;29;21007;-77
2021/08/07 09:51:01;;;;;;;2.77;1.23;;;22.90;99.90;;;;;;4932198;29;20544;-75
2021/08/07 09:53:28;;;;;;;1.97;1.00;;;22.70;99.90;;;;;;4932041;29;20184;-76
2021/08/07 09:56:02;;;;;;;2.37;1.80;;;22.60;99.90;;;;;;4932998;29;20430;-76
2021/08/07 09:58:28;;;;;;;2.80;1.57;;;22.50;99.90;;;;;;4932837;29;20838;-76
2021/08/07 10:00:53;;;;;;;2.60;1.47;;;22.40;99.90;;;;;;4932291;29;20508;-76
2021/08/07 10:03:26;;;;;;;8.53;1.40;;;22.30;99.90;;;;;;4932619;29;20274;-75
2021/08/07 10:05:51;;;;;;;6.80;2.10;;;22.20;99.90;;;;;;4933023;29;20710;-76
2021/08/07 10:08:17;;;;;;;4.60;1.40;;;22.10;99.90;;;;;;4932340;29;20420;-75
2021/08/07 10:10:45;;;;;;;5.23;2.07;;;21.90;99.90;;;;;;4931197;29;20324;-73
2021/08/07 10:13:11;;;;;;;5.03;1.57;;;21.80;99.90;;;;;;4931877;29;20185;-74
2021/08/07 10:15:39;;;;;;;3.07;1.13;;;21.60;99.90;;;;;;4932265;29;20520;-74
2021/08/07 10:18:06;;;;;;;2.23;2.00;;;21.40;99.90;;;;;;4931811;29;20464;-78
2021/08/07 10:20:37;;;;;;;3.80;1.70;;;21.20;99.90;;;;;;4931773;29;20425;-78
2021/08/07 10:23:04;;;;;;;1.30;1.20;;;20.90;99.90;;;;;;4934838;29;20413;-77
2021/08/07 10:25:31;;;;;;;5.13;2.00;;;20.70;99.90;;;;;;4934308;29;21100;-79
2021/08/07 10:27:59;;;;;;;4.20;1.87;;;20.60;99.90;;;;;;4937149;29;20844;-79
2021/08/07 10:30:28;;;;;;;2.87;1.50;;;20.40;99.90;;;;;;4937733;29;20414;-82
2021/08/07 10:32:56;;;;;;;2.10;1.40;;;20.20;99.90;;;;;;4944233;29;20455;-81
2021/08/07 10:35:25;;;;;;;4.90;1.90;;;20.10;99.90;;;;;;4947295;29;20417;-82
2021/08/07 10:37:53;;;;;;;2.40;1.53;;;20.00;99.90;;;;;;4944218;29;20484;-80
2021/08/07 10:40:18;;;;;;;3.20;2.23;;;19.80;99.90;;;;;;4937908;29;20409;-79
2021/08/07 10:42:46;;;;;;;3.03;1.23;;;19.70;99.90;;;;;;4934753;29;20452;-78
2021/08/07 10:45:13;;;;;;;3.03;1.67;;;19.50;99.90;;;;;;4925162;29;20178;-78
2021/08/07 10:47:44;;;;;;;3.20;1.80;;;19.40;99.90;;;;;;4913527;29;20880;-76
2021/08/07 10:50:24;;;;;;;2.90;1.70;;;19.40;99.90;;;;;;4927509;29;20432;-76
2021/08/07 10:52:51;;;;;;;7.27;1.80;;;19.20;99.90;;;;;;4932381;29;20425;-75
2021/08/07 10:55:46;;;;;;;2.20;2.00;;;19.20;99.90;;;;;;4932384;29;20941;-76
2021/08/07 10:58:35;;;;;;;4.30;1.90;;;19.00;99.90;;;;;;4932333;29;20835;-76
2021/08/07 11:01:22;;;;;;;3.80;1.70;;;18.90;99.90;;;;;;4932945;29;20473;-75
2021/08/07 11:04:02;;;;;;;3.50;2.03;;;18.70;99.90;;;;;;4933180;29;20436;-76
2021/08/07 11:06:43;;;;;;;3.10;1.57;;;18.70;99.90;;;;;;4934601;29;20447;-75
2021/08/07 11:09:30;;;;;;;1.73;1.30;;;18.70;99.90;;;;;;4935372;29;20421;-76
2021/08/07 11:12:11;;;;;;;2.70;2.20;;;18.60;99.90;;;;;;4934878;29;20452;-76
2021/08/07 11:14:39;;;;;;;2.43;2.10;;;18.50;99.90;;;;;;4935855;29;21064;-75
2021/08/07 11:17:05;;;;;;;7.20;2.20;;;18.50;99.90;;;;;;4934311;29;20435;-75
2021/08/07 11:19:49;;;;;;;2.30;1.80;;;18.50;99.90;;;;;;4935559;29;20500;-74
2021/08/07 11:22:17;;;;;;;5.20;2.60;;;18.40;99.90;;;;;;4932849;29;20604;-75
2021/08/07 11:24:48;;;;;;;3.40;2.40;;;18.40;99.90;;;;;;4935553;29;20453;-75
2021/08/07 11:27:15;;;;;;;6.70;2.80;;;18.40;99.90;;;;;;4934350;29;20433;-75
2021/08/07 11:30:16;;;;;;;6.57;2.60;;;18.40;99.90;;;;;;4935180;29;20413;-76
2021/08/07 11:32:42;;;;;;;2.70;2.33;;;18.40;99.90;;;;;;4933796;29;21076;-75
2021/08/07 11:35:07;;;;;;;4.60;2.07;;;18.40;99.90;;;;;;4935243;29;20417;-76
2021/08/07 11:37:33;;;;;;;3.03;2.20;;;18.30;99.90;;;;;;4934102;29;20554;-75
2021/08/07 11:40:06;;;;;;;6.07;2.60;;;18.30;99.90;;;;;;4933308;29;20181;-76
2021/08/07 11:42:44;;;;;;;7.13;3.30;;;18.30;99.90;;;;;;4934119;29;20449;-75
2021/08/07 11:45:14;;;;;;;3.77;2.63;;;18.20;99.90;;;;;;4934495;29;20425;-76
2021/08/07 11:47:45;;;;;;;8.17;2.50;;;18.20;99.90;;;;;;4934762;29;20485;-76
2021/08/07 11:50:11;;;;;;;3.17;2.27;;;18.20;99.90;;;;;;4931948;29;20439;-75
2021/08/07 11:52:37;;;;;;;3.23;2.23;;;18.20;99.90;;;;;;4934739;29;21108;-73
2021/08/07 11:55:03;;;;;;;4.13;2.50;;;18.20;99.90;;;;;;4934261;29;20515;-73
2021/08/07 11:57:29;;;;;;;2.73;2.43;;;18.20;99.90;;;;;;4933585;29;20216;-74
2021/08/07 12:00:35;;;;;;;3.43;2.50;;;18.20;99.90;;;;;;4948747;29;20424;-75
2021/08/07 12:03:18;;;;;;;4.27;2.90;;;18.10;99.90;;;;;;4937243;28;20268;-74
2021/08/07 12:05:57;;;;;;;6.33;3.07;;;18.10;99.90;;;;;;4953224;29;20857;-76
2021/08/07 12:08:31;;;;;;;3.23;2.80;;;18.10;99.90;;;;;;4935988;28;20561;-76
2021/08/07 12:10:59;;;;;;;2.90;2.53;;;18.10;99.90;;;;;;4952069;28;20968;-75
2021/08/07 12:13:27;;;;;;;3.40;3.10;;;18.10;99.90;;;;;;4948395;28;20433;-75
2021/08/07 12:16:14;;;;;;;2.90;2.70;;;18.10;99.90;;;;;;4933381;29;20852;-76
2021/08/07 12:18:54;;;;;;;6.03;2.70;;;18.10;99.90;;;;;;4934418;29;20519;-74
2021/08/07 12:21:22;;;;;;;3.23;2.90;;;18.10;99.90;;;;;;4933616;29;20421;-73
2021/08/07 12:23:59;;;;;;;2.80;2.60;;;18.10;99.90;;;;;;4934435;29;20538;-73
2021/08/07 12:26:25;;;;;;;4.17;2.53;;;18.10;99.90;;;;;;4933434;29;20480;-74
2021/08/07 12:29:05;;;;;;;4.67;3.63;;;18.10;99.90;;;;;;4934198;29;20421;-75
2021/08/07 12:31:46;;;;;;;3.37;3.10;;;18.10;99.90;;;;;;4933523;29;20906;-76
2021/08/07 12:34:17;;;;;;;3.27;2.90;;;18.10;99.90;;;;;;4934099;29;20793;-77
2021/08/07 12:36:54;;;;;;;3.33;2.50;;;18.10;99.90;;;;;;4933571;29;20448;-76
2021/08/07 12:39:19;;;;;;;6.43;2.57;;;18.10;99.90;;;;;;4933766;29;20437;-76
2021/08/07 12:41:45;;;;;;;2.30;2.20;;;18.10;99.90;;;;;;4933952;29;21026;-74
2021/08/07 12:44:25;;;;;;;3.10;2.40;;;18.10;99.90;;;;;;4932805;29;20562;-75
2021/08/07 12:46:54;;;;;;;2.93;2.30;;;18.10;99.90;;;;;;4933872;29;20714;-76
2021/08/07 12:49:45;;;;;;;3.00;2.77;;;18.10;99.90;;;;;;4933304;29;20402;-75
2021/08/07 12:52:13;;;;;;;3.73;2.47;;;18.10;99.90;;;;;;4933919;29;20443;-75
2021/08/07 12:54:40;;;;;;;2.90;2.70;;;18.00;99.90;;;;;;4933919;29;20832;-77
2021/08/07 12:57:25;;;;;;;6.47;2.43;;;18.00;99.90;;;;;;4933470;29;20421;-76
2021/08/07 12:59:53;;;;;;;3.67;2.10;;;18.00;99.90;;;;;;4936562;29;20424;-76
2021/08/07 13:02:19;;;;;;;3.20;2.50;;;17.90;99.90;;;;;;4936384;28;20516;-76
2021/08/07 13:04:51;;;;;;;2.93;2.57;;;17.90;99.90;;;;;;4937439;29;20443;-75
2021/08/07 13:07:26;;;;;;;2.53;2.40;;;17.90;99.90;;;;;;4947646;29;20486;-76
2021/08/07 13:09:51;;;;;;;3.43;2.77;;;17.80;99.90;;;;;;4949631;28;20429;-75
2021/08/07 13:12:20;;;;;;;4.23;2.20;;;17.80;99.90;;;;;;4932957;29;20455;-76
2021/08/07 13:14:52;;;;;;;7.87;2.53;;;17.80;99.90;;;;;;4932227;29;20185;-76
2021/08/07 13:17:38;;;;;;;2.60;2.40;;;17.80;99.90;;;;;;4939524;29;20551;-76
2021/08/07 13:20:05;;;;;;;2.70;2.50;;;17.80;99.90;;;;;;4935854;28;20767;-75
2021/08/07 13:22:31;;;;;;;8.93;3.67;;;17.70;99.90;;;;;;4952228;28;20463;-75
2021/08/07 13:25:02;;;;;;;4.50;2.57;;;17.70;99.90;;;;;;4940411;29;20464;-73
2021/08/07 13:27:39;;;;;;;4.13;2.50;;;17.60;99.90;;;;;;4943385;29;20199;-76
2021/08/07 13:30:10;;;;;;;2.57;1.87;;;17.60;99.90;;;;;;4945179;28;20523;-75
2021/08/07 13:32:36;;;;;;;3.40;1.63;;;17.50;99.90;;;;;;4932040;29;20461;-76
2021/08/07 13:35:16;;;;;;;4.63;1.77;;;17.30;99.90;;;;;;4931412;29;20461;-75
2021/08/07 13:37:43;;;;;;;2.20;2.00;;;17.10;99.90;;;;;;4929942;29;20476;-75
2021/08/07 13:40:11;;;;;;;5.00;1.40;;;17.00;99.90;;;;;;4932601;29;20444;-76
2021/08/07 13:42:38;;;;;;;5.30;1.80;;;16.80;99.90;;;;;;4915308;29;20446;-75
2021/08/07 13:45:05;;;;;;;2.57;1.23;;;16.70;99.90;;;;;;4932460;29;20462;-75
2021/08/07 13:47:30;;;;;;;2.40;1.40;;;16.70;99.90;;;;;;4931968;29;20469;-76
2021/08/07 13:49:56;;;;;;;3.53;2.00;;;16.70;99.90;;;;;;4932446;29;20923;-76
2021/08/07 13:52:22;;;;;;;1.90;1.80;;;16.60;99.90;;;;;;4932190;29;20221;-77
2021/08/07 13:54:48;;;;;;;5.87;2.37;;;16.70;99.90;;;;;;4933143;29;20196;-77
2021/08/07 13:57:13;;;;;;;2.43;1.50;;;16.60;99.90;;;;;;4932054;29;20417;-77
2021/08/07 13:59:40;;;;;;;3.83;2.57;;;16.60;99.90;;;;;;4933780;29;20674;-76
2021/08/07 14:02:10;;;;;;;3.10;2.10;;;16.60;99.90;;;;;;4932704;29;20189;-74
2021/08/07 14:04:36;;;;;;;7.03;1.97;;;16.50;99.90;;;;;;4932290;29;20428;-76
2021/08/07 14:07:03;;;;;;;2.10;1.87;;;16.50;99.90;;;;;;4932228;29;20425;-76
2021/08/07 14:09:28;;;;;;;1.77;1.67;;;16.50;99.90;;;;;;4932542;29;20516;-75
2021/08/07 14:11:54;;;;;;;1.70;1.60;;;16.40;99.90;;;;;;4932878;29;21033;-76
2021/08/07 14:14:22;;;;;;;1.53;1.43;;;16.40;99.90;;;;;;4931458;29;20189;-76
2021/08/07 14:16:49;;;;;;;2.57;1.40;;;16.40;99.90;;;;;;4931749;29;20413;-76
2021/08/07 14:19:14;;;;;;;4.83;2.00;;;16.40;99.90;;;;;;4931288;29;20483;-76
2021/08/07 14:21:41;;;;;;;2.67;1.73;;;16.40;99.90;;;;;;4931691;29;20543;-76
2021/08/07 14:24:07;;;;;;;2.50;2.00;;;16.40;99.90;;;;;;4932448;29;20185;-76
2021/08/07 14:26:33;;;;;;;2.13;1.60;;;16.40;99.90;;;;;;4932066;29;20431;-76
2021/08/07 14:28:59;;;;;;;5.17;1.93;;;16.40;99.90;;;;;;4932005;29;20484;-76
2021/08/07 14:31:25;;;;;;;1.60;1.50;;;16.40;99.90;;;;;;4932215;29;21012;-75
2021/08/07 14:33:50;;;;;;;2.70;1.43;;;16.40;99.90;;;;;;4932252;29;20181;-73
2021/08/07 14:36:16;;;;;;;1.70;1.60;;;16.40;99.90;;;;;;4931655;29;20199;-74
2021/08/07 14:38:41;;;;;;;2.70;1.60;;;16.40;99.90;;;;;;4933295;29;20240;-75
2021/08/07 14:41:09;;;;;;;4.20;2.20;;;16.30;99.90;;;;;;4936247;29;20209;-75
2021/08/07 14:43:35;;;;;;;1.97;1.40;;;16.20;99.90;;;;;;4935178;29;20193;-77
2021/08/07 14:46:00;;;;;;;4.67;3.10;;;16.20;99.90;;;;;;4935718;29;20443;-74
2021/08/07 14:48:26;;;;;;;3.70;2.10;;;16.10;99.90;;;;;;4935527;29;20200;-76
2021/08/07 14:50:51;;;;;;;3.30;2.07;;;16.00;99.90;;;;;;4935608;29;20280;-74
2021/08/07 14:53:17;;;;;;;3.73;1.80;;;16.00;99.90;;;;;;4934498;29;20190;-73
2021/08/07 14:55:43;;;;;;;4.00;1.90;;;16.00;99.90;;;;;;4935136;29;20188;-75
2021/08/07 14:58:08;;;;;;;3.10;1.50;;;15.90;99.90;;;;;;4935309;29;20213;-74
2021/08/07 15:00:36;;;;;;;2.60;1.70;;;15.90;99.90;;;;;;4936354;29;20184;-75
2021/08/07 15:03:01;;;;;;;1.53;1.43;;;15.80;99.90;;;;;;4936311;29;20538;-76
2021/08/07 15:05:27;;;;;;;1.80;1.43;;;15.80;99.90;;;;;;4935065;29;20436;-76
2021/08/07 15:07:52;;;;;;;1.97;1.10;;;15.80;99.90;;;;;;4935431;29;20601;-75
2021/08/07 15:10:18;;;;;;;2.00;1.30;;;15.90;99.90;;;;;;4935919;29;20190;-76
2021/08/07 15:12:44;;;;;;;5.13;1.20;;;15.90;99.90;;;;;;4935612;29;20208;-76
2021/08/07 15:15:09;;;;;;;1.20;1.10;;;15.90;99.90;;;;;;4935237;29;20240;-75
2021/08/07 15:17:35;;;;;;;3.37;1.33;;;15.90;99.90;;;;;;4934473;29;20224;-76
2021/08/07 15:20:01;;;;;;;1.97;1.33;;;15.90;99.90;;;;;;4935056;29;20678;-76
2021/08/07 15:22:26;;;;;;;1.83;1.20;;;16.00;99.90;;;;;;4934772;29;20205;-78
2021/08/07 15:24:52;;;;;;;1.30;1.20;;;16.00;99.90;;;;;;4935346;29;20187;-75
2021/08/07 15:27:17;;;;;;;3.00;1.30;;;16.10;99.90;;;;;;4934588;29;20189;-75
2021/08/07 15:29:43;;;;;;;1.70;1.37;;;16.10;99.90;;;;;;4934917;29;20189;-75
2021/08/07 15:32:08;;;;;;;1.37;1.27;;;16.20;99.90;;;;;;4935022;29;20292;-75
2021/08/07 15:34:34;;;;;;;2.50;1.53;;;16.20;99.90;;;;;;4934702;29;20260;-76
2021/08/07 15:36:59;;;;;;;2.90;1.10;;;16.30;99.90;;;;;;4934188;29;20192;-76
2021/08/07 15:39:25;;;;;;;2.43;1.53;;;16.30;99.90;;;;;;4935339;29;20260;-76
2021/08/07 15:41:50;;;;;;;2.20;1.33;;;16.40;99.90;;;;;;4934719;29;20685;-75
2021/08/07 15:44:16;;;;;;;4.50;1.50;;;16.40;99.90;;;;;;4934958;29;20212;-74
2021/08/07 15:46:41;;;;;;;1.50;1.40;;;16.50;99.90;;;;;;4934157;29;20232;-76
2021/08/07 15:49:07;;;;;;;2.03;1.37;;;16.50;99.90;;;;;;4934563;29;20190;-76
2021/08/07 15:51:35;;;;;;;1.17;1.07;;;16.50;99.90;;;;;;4934216;29;20209;-75
2021/08/07 15:54:01;;;;;;;1.40;1.30;;;16.50;99.90;;;;;;4935037;29;20272;-74
2021/08/07 15:56:27;;;;;;;2.63;1.33;;;16.50;99.90;;;;;;4934656;29;20993;-78
2021/08/07 15:58:52;;;;;;;4.40;0.93;;;16.60;99.90;;;;;;4935019;29;20212;-79
2021/08/07 16:01:18;;;;;;;2.40;1.27;;;16.60;99.90;;;;;;4934958;29;20568;-78
2021/08/07 16:03:44;;;;;;;2.10;1.77;;;16.60;99.90;;;;;;4934795;29;20166;-74
2021/08/07 16:06:10;;;;;;;2.40;1.60;;;16.70;99.90;;;;;;4934366;29;20229;-78
2021/08/07 16:08:36;;;;;;;1.83;1.67;;;16.80;99.90;;;;;;4935433;29;20181;-78
2021/08/07 16:11:02;;;;;;;1.10;1.00;;;16.80;99.90;;;;;;4934294;29;20825;-76
2021/08/07 16:13:27;;;;;;;1.37;0.97;;;16.80;99.90;;;;;;4934854;29;21051;-78
2021/08/07 16:15:53;;;;;;;1.53;1.27;;;16.80;99.90;;;;;;4934512;29;20531;-77
2021/08/07 16:18:18;;;;;;;1.30;1.23;;;16.80;99.90;;;;;;4934426;29;20682;-78
2021/08/07 16:20:44;;;;;;;4.93;1.47;;;16.80;99.90;;;;;;4934044;29;20251;-77
2021/08/07 16:23:09;;;;;;;1.07;1.00;;;16.80;99.90;;;;;;4933929;29;20208;-76
2021/08/07 16:25:35;;;;;;;4.20;2.50;;;16.80;99.90;;;;;;4934779;29;20189;-78
2021/08/07 16:28:00;;;;;;;2.50;1.80;;;16.70;99.90;;;;;;4935580;29;20184;-78
2021/08/07 16:30:26;;;;;;;2.40;1.27;;;16.70;99.90;;;;;;4935227;29;20691;-78
2021/08/07 16:32:51;;;;;;;1.30;1.10;;;16.60;99.90;;;;;;4934651;29;20217;-77
2021/08/07 16:35:17;;;;;;;2.30;1.53;;;16.60;99.90;;;;;;4936849;29;20189;-78
2021/08/07 16:37:42;;;;;;;1.63;1.50;;;16.60;99.90;;;;;;4934993;29;20248;-78
2021/08/07 16:40:08;;;;;;;2.30;1.70;;;16.60;99.90;;;;;;4936504;29;20849;-78
2021/08/07 16:42:34;;;;;;;1.63;1.53;;;16.60;99.90;;;;;;4934073;29;20197;-77
2021/08/07 16:45:00;;;;;;;5.27;1.90;;;16.60;99.90;;;;;;4936737;29;20419;-78
2021/08/07 16:47:26;;;;;;;11.17;1.57;;;16.60;99.90;;;;;;4935817;29;20504;-79
2021/08/07 16:49:52;;;;;;;1.37;1.20;;;16.60;99.90;;;;;;4935185;29;20213;-77
2021/08/07 16:52:18;;;;;;;7.70;1.80;;;16.60;99.90;;;;;;4935285;29;20631;-78
2021/08/07 16:54:43;;;;;;;1.60;1.50;;;16.70;99.90;;;;;;4935812;29;20456;-78
2021/08/07 16:57:10;;;;;;;2.10;1.47;;;16.70;99.90;;;;;;4936551;29;20574;-77
2021/08/07 16:59:36;;;;;;;3.37;1.13;;;16.60;99.90;;;;;;4936358;29;20182;-78
2021/08/07 17:02:05;;;;;;;5.73;1.33;;;16.60;99.90;;;;;;4934126;29;20434;-79
2021/08/07 17:04:30;;;;;;;3.43;0.93;;;16.70;99.90;;;;;;4935538;29;20272;-77
2021/08/07 17:06:56;;;;;;;3.90;1.23;;;16.60;99.90;;;;;;4932360;29;20489;-78
2021/08/07 17:09:21;;;;;;;2.97;1.10;;;16.60;99.90;;;;;;4935323;29;20553;-79
2021/08/07 17:11:47;;;;;;;4.87;1.27;;;16.60;99.90;;;;;;4935506;29;20306;-79
2021/08/07 17:14:12;;;;;;;1.17;1.00;;;16.60;99.90;;;;;;4935569;29;20177;-78
2021/08/07 17:16:38;;;;;;;2.53;1.77;;;16.60;99.90;;;;;;4935181;29;20189;-79
2021/08/07 17:19:03;;;;;;;4.83;1.10;;;16.60;99.90;;;;;;4933408;29;20787;-78
2021/08/07 17:21:29;;;;;;;3.13;1.43;;;16.60;99.90;;;;;;4933320;29;20205;-75